Kansas City, MO

7:20 AM CDT on July 25, 2016 (GMT -0500)
Weatherby Lake Westside | | Change Station

Elev 909 ft 39.23 °N, 94.70 °W | Updated 5 seconds ago

Overcast
Overcast
74.5 °F
Feels Like 75 °F
N
1.1
Wind Variable Wind from NNE
Gusts 3.4 mph

Today
High -- | Low -- °F
--% Chance of Precip.
Yesterday
High -- | Low -- °F
Precip. -- in
Pressure 30.03 in
Visibility 10.0 miles
Clouds Overcast 15000 ft
Heat Index 75 °F
Dew Point 67 °F
Humidity 77%
Rainfall 0.00 in
Snow Depth Not available.
6:13 AM 8:37 PM
Waning Gibbous, 66% visible
METAR KMCI 251153Z 05009KT 10SM OVC150 23/19 A3006 RMK AO2 SLP167 T02280194 10256 20228 51009 $
Pressure 30.03 in
Visibility 10.0 miles
Clouds Overcast 15000 ft
Heat Index 75 °F
Dew Point 67 °F
Humidity 77%
Rainfall 0.00 in
Snow Depth Not available.
6:13 AM 8:37 PM
Waning Gibbous, 66% visible
METAR KMCI 251153Z 05009KT 10SM OVC150 23/19 A3006 RMK AO2 SLP167 T02280194 10256 20228 51009 $

10-Day Weather Forecast

Almanac

Astronomy

Jul. 25, 2016 Rise Set
Actual Time
Civil Twilight
Nautical Twilight
Astronomical Twilight
Moon
Length of Visible Light
Length of Day
Tomorrow will be .
, % of the Moon is Illuminated

Today's Extremes

State Highs State Lows

Community

WunderPhotos

Upload Photos

1,927,294 photos uploaded!

WunderBlog® & News

Nearby

Air Quality

  Air Quality AQ Index Pollutant
Not available.

Snow Depth

Station Depth Elevation

Earthquake Activity

City Distance Mag. Time & Date
Minimum magnitude displayed is 2.5.

Coastal Water Temperatures

Place Temperature

Stations

Nearby Weather Stations

Station Location Temp. Windchill Dew Point Humidity Wind Precip. Elev Updated Type
                   

Watches & Warnings

There are currently no watches in effect.